sensor_id;sensor_type;location;lat;lon;timestamp;P1;durP1;ratioP1;P2;durP2;ratioP2
15889;SDS011;8043;49.388;12.128;2022-12-24T00:03:17;1.63;;;0.80;;
15889;SDS011;8043;49.388;12.128;2022-12-24T00:08:19;2.40;;;1.17;;
15889;SDS011;8043;49.388;12.128;2022-12-24T00:13:21;2.60;;;1.10;;
15889;SDS011;8043;49.388;12.128;2022-12-24T00:18:24;0.50;;;0.30;;
15889;SDS011;8043;49.388;12.128;2022-12-24T00:23:26;3.37;;;0.67;;
15889;SDS011;8043;49.388;12.128;2022-12-24T00:28:28;1.40;;;0.63;;
15889;SDS011;8043;49.388;12.128;2022-12-24T00:33:30;1.47;;;0.47;;
15889;SDS011;8043;49.388;12.128;2022-12-24T00:38:33;4.90;;;0.50;;
15889;SDS011;8043;49.388;12.128;2022-12-24T00:43:35;0.27;;;0.27;;
15889;SDS011;8043;49.388;12.128;2022-12-24T00:48:37;1.60;;;0.67;;
15889;SDS011;8043;49.388;12.128;2022-12-24T00:53:39;4.00;;;1.00;;
15889;SDS011;8043;49.388;12.128;2022-12-24T00:58:42;1.57;;;0.73;;
15889;SDS011;8043;49.388;12.128;2022-12-24T01:03:44;2.30;;;0.93;;
15889;SDS011;8043;49.388;12.128;2022-12-24T01:08:50;3.33;;;0.70;;
15889;SDS011;8043;49.388;12.128;2022-12-24T01:13:54;1.20;;;0.40;;
15889;SDS011;8043;49.388;12.128;2022-12-24T01:18:56;2.83;;;1.00;;
15889;SDS011;8043;49.388;12.128;2022-12-24T01:23:58;1.60;;;0.67;;
15889;SDS011;8043;49.388;12.128;2022-12-24T01:29:00;3.53;;;1.43;;
15889;SDS011;8043;49.388;12.128;2022-12-24T01:34:03;4.00;;;0.80;;
15889;SDS011;8043;49.388;12.128;2022-12-24T01:39:05;3.77;;;1.10;;
15889;SDS011;8043;49.388;12.128;2022-12-24T01:44:20;2.17;;;0.67;;
15889;SDS011;8043;49.388;12.128;2022-12-24T01:49:28;5.67;;;1.03;;
15889;SDS011;8043;49.388;12.128;2022-12-24T01:54:52;5.20;;;0.67;;
15889;SDS011;8043;49.388;12.128;2022-12-24T01:59:59;1.23;;;1.00;;
15889;SDS011;8043;49.388;12.128;2022-12-24T02:10:16;1.17;;;0.83;;
15889;SDS011;8043;49.388;12.128;2022-12-24T02:15:18;3.10;;;0.80;;
15889;SDS011;8043;49.388;12.128;2022-12-24T02:31:26;4.80;;;1.07;;
15889;SDS011;8043;49.388;12.128;2022-12-24T02:36:31;0.67;;;0.60;;
15889;SDS011;8043;49.388;12.128;2022-12-24T02:41:36;8.67;;;1.27;;
15889;SDS011;8043;49.388;12.128;2022-12-24T02:46:58;2.47;;;0.90;;
15889;SDS011;8043;49.388;12.128;2022-12-24T02:52:01;1.20;;;0.83;;
15889;SDS011;8043;49.388;12.128;2022-12-24T02:57:22;5.53;;;0.93;;
15889;SDS011;8043;49.388;12.128;2022-12-24T03:02:46;7.10;;;2.00;;
15889;SDS011;8043;49.388;12.128;2022-12-24T03:08:05;0.90;;;0.80;;
15889;SDS011;8043;49.388;12.128;2022-12-24T03:13:21;1.67;;;0.80;;
15889;SDS011;8043;49.388;12.128;2022-12-24T03:18:24;4.57;;;0.90;;
15889;SDS011;8043;49.388;12.128;2022-12-24T03:23:27;1.70;;;0.70;;
15889;SDS011;8043;49.388;12.128;2022-12-24T03:28:29;3.43;;;0.80;;
15889;SDS011;8043;49.388;12.128;2022-12-24T03:33:32;3.47;;;1.10;;
15889;SDS011;8043;49.388;12.128;2022-12-24T03:38:34;5.90;;;1.17;;
15889;SDS011;8043;49.388;12.128;2022-12-24T03:43:37;4.23;;;1.27;;
15889;SDS011;8043;49.388;12.128;2022-12-24T03:48:39;4.80;;;0.80;;
15889;SDS011;8043;49.388;12.128;2022-12-24T03:53:41;4.70;;;1.10;;
15889;SDS011;8043;49.388;12.128;2022-12-24T03:58:43;2.20;;;0.93;;
15889;SDS011;8043;49.388;12.128;2022-12-24T04:03:45;6.83;;;1.33;;
15889;SDS011;8043;49.388;12.128;2022-12-24T04:08:48;2.70;;;0.80;;
15889;SDS011;8043;49.388;12.128;2022-12-24T04:13:50;5.73;;;1.17;;
15889;SDS011;8043;49.388;12.128;2022-12-24T04:18:52;4.23;;;0.87;;
15889;SDS011;8043;49.388;12.128;2022-12-24T04:23:54;4.13;;;1.27;;
15889;SDS011;8043;49.388;12.128;2022-12-24T04:28:57;2.47;;;0.73;;
15889;SDS011;8043;49.388;12.128;2022-12-24T04:33:59;4.83;;;1.30;;
15889;SDS011;8043;49.388;12.128;2022-12-24T04:39:01;2.70;;;1.40;;
15889;SDS011;8043;49.388;12.128;2022-12-24T04:44:03;7.77;;;1.70;;
15889;SDS011;8043;49.388;12.128;2022-12-24T04:49:06;6.00;;;1.40;;
15889;SDS011;8043;49.388;12.128;2022-12-24T04:54:08;5.67;;;1.13;;
15889;SDS011;8043;49.388;12.128;2022-12-24T04:59:10;6.77;;;0.80;;
15889;SDS011;8043;49.388;12.128;2022-12-24T05:04:12;6.43;;;1.20;;
15889;SDS011;8043;49.388;12.128;2022-12-24T05:09:14;4.10;;;0.90;;
15889;SDS011;8043;49.388;12.128;2022-12-24T05:14:17;1.37;;;1.03;;
15889;SDS011;8043;49.388;12.128;2022-12-24T05:19:19;4.00;;;1.03;;
15889;SDS011;8043;49.388;12.128;2022-12-24T05:24:21;5.57;;;0.97;;
15889;SDS011;8043;49.388;12.128;2022-12-24T05:29:41;2.83;;;0.83;;
15889;SDS011;8043;49.388;12.128;2022-12-24T05:34:43;4.47;;;1.20;;
15889;SDS011;8043;49.388;12.128;2022-12-24T05:39:46;4.70;;;1.17;;
15889;SDS011;8043;49.388;12.128;2022-12-24T05:44:48;7.10;;;1.07;;
15889;SDS011;8043;49.388;12.128;2022-12-24T05:49:50;5.33;;;1.00;;
15889;SDS011;8043;49.388;12.128;2022-12-24T05:54:52;2.17;;;0.70;;
15889;SDS011;8043;49.388;12.128;2022-12-24T05:59:54;7.23;;;1.03;;
15889;SDS011;8043;49.388;12.128;2022-12-24T06:04:56;2.20;;;0.80;;
15889;SDS011;8043;49.388;12.128;2022-12-24T06:09:59;4.83;;;1.50;;
15889;SDS011;8043;49.388;12.128;2022-12-24T06:15:01;3.93;;;1.07;;
15889;SDS011;8043;49.388;12.128;2022-12-24T06:20:03;3.57;;;1.10;;
15889;SDS011;8043;49.388;12.128;2022-12-24T06:25:06;2.57;;;0.73;;
15889;SDS011;8043;49.388;12.128;2022-12-24T06:30:09;0.73;;;0.57;;
15889;SDS011;8043;49.388;12.128;2022-12-24T06:35:11;1.27;;;0.70;;
15889;SDS011;8043;49.388;12.128;2022-12-24T06:40:13;2.47;;;0.60;;
15889;SDS011;8043;49.388;12.128;2022-12-24T06:45:16;3.07;;;1.10;;
15889;SDS011;8043;49.388;12.128;2022-12-24T06:50:18;1.37;;;0.93;;
15889;SDS011;8043;49.388;12.128;2022-12-24T06:55:20;6.53;;;1.40;;
15889;SDS011;8043;49.388;12.128;2022-12-24T07:00:22;5.33;;;1.30;;
15889;SDS011;8043;49.388;12.128;2022-12-24T07:05:25;9.47;;;1.43;;
15889;SDS011;8043;49.388;12.128;2022-12-24T07:10:27;7.60;;;1.10;;
15889;SDS011;8043;49.388;12.128;2022-12-24T07:15:29;1.30;;;1.10;;
15889;SDS011;8043;49.388;12.128;2022-12-24T07:20:31;2.30;;;1.23;;
15889;SDS011;8043;49.388;12.128;2022-12-24T07:25:34;3.90;;;1.20;;
15889;SDS011;8043;49.388;12.128;2022-12-24T07:30:36;4.83;;;1.97;;
15889;SDS011;8043;49.388;12.128;2022-12-24T07:35:38;1.20;;;0.73;;
15889;SDS011;8043;49.388;12.128;2022-12-24T07:40:40;0.97;;;0.90;;
15889;SDS011;8043;49.388;12.128;2022-12-24T07:45:43;5.50;;;1.80;;
15889;SDS011;8043;49.388;12.128;2022-12-24T07:50:45;3.08;;;1.17;;
15889;SDS011;8043;49.388;12.128;2022-12-24T07:55:52;9.13;;;1.70;;
15889;SDS011;8043;49.388;12.128;2022-12-24T08:00:59;4.60;;;1.47;;
15889;SDS011;8043;49.388;12.128;2022-12-24T08:06:01;1.87;;;1.00;;
15889;SDS011;8043;49.388;12.128;2022-12-24T08:11:04;3.42;;;0.82;;
15889;SDS011;8043;49.388;12.128;2022-12-24T08:16:07;2.77;;;1.23;;
15889;SDS011;8043;49.388;12.128;2022-12-24T08:21:09;5.75;;;1.95;;
15889;SDS011;8043;49.388;12.128;2022-12-24T08:26:12;3.40;;;1.27;;
15889;SDS011;8043;49.388;12.128;2022-12-24T08:31:14;4.77;;;1.80;;
15889;SDS011;8043;49.388;12.128;2022-12-24T08:36:16;4.83;;;1.17;;
15889;SDS011;8043;49.388;12.128;2022-12-24T08:41:18;5.00;;;1.22;;
15889;SDS011;8043;49.388;12.128;2022-12-24T08:46:21;3.47;;;1.37;;
15889;SDS011;8043;49.388;12.128;2022-12-24T08:51:23;6.00;;;1.67;;
15889;SDS011;8043;49.388;12.128;2022-12-24T08:56:25;10.90;;;2.00;;
15889;SDS011;8043;49.388;12.128;2022-12-24T09:01:28;8.23;;;2.00;;
15889;SDS011;8043;49.388;12.128;2022-12-24T09:06:31;4.90;;;1.80;;
15889;SDS011;8043;49.388;12.128;2022-12-24T09:11:34;7.47;;;2.13;;
15889;SDS011;8043;49.388;12.128;2022-12-24T09:16:36;7.17;;;2.27;;
15889;SDS011;8043;49.388;12.128;2022-12-24T09:21:38;8.60;;;2.13;;
15889;SDS011;8043;49.388;12.128;2022-12-24T09:26:40;2.17;;;0.90;;
15889;SDS011;8043;49.388;12.128;2022-12-24T09:31:44;15.53;;;2.90;;
15889;SDS011;8043;49.388;12.128;2022-12-24T09:36:47;5.17;;;1.40;;
15889;SDS011;8043;49.388;12.128;2022-12-24T09:47:30;4.93;;;1.23;;
15889;SDS011;8043;49.388;12.128;2022-12-24T09:52:15;7.27;;;1.77;;
15889;SDS011;8043;49.388;12.128;2022-12-24T09:57:22;9.37;;;1.53;;
15889;SDS011;8043;49.388;12.128;2022-12-24T10:02:25;4.33;;;1.27;;
15889;SDS011;8043;49.388;12.128;2022-12-24T10:07:41;5.03;;;1.50;;
15889;SDS011;8043;49.388;12.128;2022-12-24T10:12:41;6.93;;;1.37;;
15889;SDS011;8043;49.388;12.128;2022-12-24T10:18:08;8.77;;;1.93;;
15889;SDS011;8043;49.388;12.128;2022-12-24T10:23:13;3.67;;;1.50;;
15889;SDS011;8043;49.388;12.128;2022-12-24T10:28:23;7.37;;;1.03;;
15889;SDS011;8043;49.388;12.128;2022-12-24T10:33:47;4.27;;;1.27;;
15889;SDS011;8043;49.388;12.128;2022-12-24T10:38:38;6.37;;;1.80;;
15889;SDS011;8043;49.388;12.128;2022-12-24T10:43:40;3.93;;;1.27;;
15889;SDS011;8043;49.388;12.128;2022-12-24T10:48:45;5.60;;;1.77;;
15889;SDS011;8043;49.388;12.128;2022-12-24T10:54:04;6.13;;;2.57;;
15889;SDS011;8043;49.388;12.128;2022-12-24T10:59:03;7.00;;;1.70;;
15889;SDS011;8043;49.388;12.128;2022-12-24T11:04:08;7.00;;;2.57;;
15889;SDS011;8043;49.388;12.128;2022-12-24T11:09:19;7.27;;;1.50;;
15889;SDS011;8043;49.388;12.128;2022-12-24T11:14:22;6.20;;;1.93;;
15889;SDS011;8043;49.388;12.128;2022-12-24T11:19:28;4.30;;;2.07;;
15889;SDS011;8043;49.388;12.128;2022-12-24T11:24:38;6.43;;;1.60;;
15889;SDS011;8043;49.388;12.128;2022-12-24T11:29:38;9.13;;;1.63;;
15889;SDS011;8043;49.388;12.128;2022-12-24T11:34:41;5.73;;;1.50;;
15889;SDS011;8043;49.388;12.128;2022-12-24T11:39:45;5.90;;;1.53;;
15889;SDS011;8043;49.388;12.128;2022-12-24T11:44:58;3.63;;;1.57;;
15889;SDS011;8043;49.388;12.128;2022-12-24T11:55:32;8.77;;;1.87;;
15889;SDS011;8043;49.388;12.128;2022-12-24T12:00:42;4.23;;;1.10;;
15889;SDS011;8043;49.388;12.128;2022-12-24T12:05:45;6.17;;;1.90;;
15889;SDS011;8043;49.388;12.128;2022-12-24T12:10:48;4.10;;;1.30;;
15889;SDS011;8043;49.388;12.128;2022-12-24T12:16:00;11.23;;;1.53;;
15889;SDS011;8043;49.388;12.128;2022-12-24T12:21:10;6.10;;;1.67;;
15889;SDS011;8043;49.388;12.128;2022-12-24T12:26:27;6.60;;;1.27;;
15889;SDS011;8043;49.388;12.128;2022-12-24T12:31:46;10.60;;;1.70;;
15889;SDS011;8043;49.388;12.128;2022-12-24T12:36:49;13.78;;;1.40;;
15889;SDS011;8043;49.388;12.128;2022-12-24T12:52:42;7.57;;;1.47;;
15889;SDS011;8043;49.388;12.128;2022-12-24T12:57:47;6.27;;;1.33;;
15889;SDS011;8043;49.388;12.128;2022-12-24T13:02:58;5.53;;;1.00;;
15889;SDS011;8043;49.388;12.128;2022-12-24T13:08:14;4.90;;;1.20;;
15889;SDS011;8043;49.388;12.128;2022-12-24T13:24:17;10.67;;;1.67;;
15889;SDS011;8043;49.388;12.128;2022-12-24T13:34:45;7.37;;;2.60;;
15889;SDS011;8043;49.388;12.128;2022-12-24T13:40:06;3.00;;;1.03;;
15889;SDS011;8043;49.388;12.128;2022-12-24T13:50:37;6.27;;;1.60;;
15889;SDS011;8043;49.388;12.128;2022-12-24T14:01:14;7.03;;;1.53;;
15889;SDS011;8043;49.388;12.128;2022-12-24T14:11:24;3.10;;;0.80;;
15889;SDS011;8043;49.388;12.128;2022-12-24T14:16:27;6.77;;;1.10;;
15889;SDS011;8043;49.388;12.128;2022-12-24T14:21:37;5.20;;;2.10;;
15889;SDS011;8043;49.388;12.128;2022-12-24T14:26:42;13.50;;;3.17;;
15889;SDS011;8043;49.388;12.128;2022-12-24T14:31:51;6.50;;;2.20;;
15889;SDS011;8043;49.388;12.128;2022-12-24T14:36:54;9.57;;;3.00;;
15889;SDS011;8043;49.388;12.128;2022-12-24T14:42:01;2.80;;;1.93;;
15889;SDS011;8043;49.388;12.128;2022-12-24T14:52:22;4.37;;;1.73;;
15889;SDS011;8043;49.388;12.128;2022-12-24T14:57:27;6.30;;;1.57;;
15889;SDS011;8043;49.388;12.128;2022-12-24T15:02:41;6.87;;;1.00;;
15889;SDS011;8043;49.388;12.128;2022-12-24T15:07:47;5.87;;;1.83;;
15889;SDS011;8043;49.388;12.128;2022-12-24T15:12:52;7.53;;;2.27;;
15889;SDS011;8043;49.388;12.128;2022-12-24T15:17:56;5.63;;;2.37;;
15889;SDS011;8043;49.388;12.128;2022-12-24T15:22:59;3.07;;;1.37;;
15889;SDS011;8043;49.388;12.128;2022-12-24T15:28:01;10.13;;;2.33;;
15889;SDS011;8043;49.388;12.128;2022-12-24T15:33:03;9.67;;;4.13;;
15889;SDS011;8043;49.388;12.128;2022-12-24T15:38:10;6.10;;;3.13;;
15889;SDS011;8043;49.388;12.128;2022-12-24T15:43:24;10.37;;;4.27;;
15889;SDS011;8043;49.388;12.128;2022-12-24T15:48:27;8.50;;;3.33;;
15889;SDS011;8043;49.388;12.128;2022-12-24T15:53:34;9.20;;;2.80;;
15889;SDS011;8043;49.388;12.128;2022-12-24T15:58:43;11.67;;;3.77;;
15889;SDS011;8043;49.388;12.128;2022-12-24T16:08:54;5.20;;;2.83;;
15889;SDS011;8043;49.388;12.128;2022-12-24T16:14:12;8.77;;;3.10;;
15889;SDS011;8043;49.388;12.128;2022-12-24T16:19:20;7.73;;;2.27;;
15889;SDS011;8043;49.388;12.128;2022-12-24T16:24:30;6.53;;;2.93;;
15889;SDS011;8043;49.388;12.128;2022-12-24T16:29:29;6.70;;;1.80;;
15889;SDS011;8043;49.388;12.128;2022-12-24T16:34:31;6.17;;;1.70;;
15889;SDS011;8043;49.388;12.128;2022-12-24T16:39:34;5.57;;;1.67;;
15889;SDS011;8043;49.388;12.128;2022-12-24T16:44:36;5.57;;;2.60;;
15889;SDS011;8043;49.388;12.128;2022-12-24T16:49:38;5.47;;;1.83;;
15889;SDS011;8043;49.388;12.128;2022-12-24T16:54:40;6.17;;;2.67;;
15889;SDS011;8043;49.388;12.128;2022-12-24T16:59:43;7.63;;;3.77;;
15889;SDS011;8043;49.388;12.128;2022-12-24T17:04:45;8.47;;;2.67;;
15889;SDS011;8043;49.388;12.128;2022-12-24T17:09:48;7.83;;;2.47;;
15889;SDS011;8043;49.388;12.128;2022-12-24T17:14:50;11.37;;;3.20;;
15889;SDS011;8043;49.388;12.128;2022-12-24T17:19:53;10.23;;;5.30;;
15889;SDS011;8043;49.388;12.128;2022-12-24T17:24:56;16.13;;;4.53;;
15889;SDS011;8043;49.388;12.128;2022-12-24T17:29:58;10.30;;;4.53;;
15889;SDS011;8043;49.388;12.128;2022-12-24T17:35:00;13.60;;;4.47;;
15889;SDS011;8043;49.388;12.128;2022-12-24T17:40:03;25.43;;;10.17;;
15889;SDS011;8043;49.388;12.128;2022-12-24T17:45:06;19.07;;;7.33;;
15889;SDS011;8043;49.388;12.128;2022-12-24T17:50:08;8.60;;;4.00;;
15889;SDS011;8043;49.388;12.128;2022-12-24T17:55:11;5.73;;;3.47;;
15889;SDS011;8043;49.388;12.128;2022-12-24T18:00:13;7.43;;;2.77;;
15889;SDS011;8043;49.388;12.128;2022-12-24T18:05:16;7.37;;;3.47;;
15889;SDS011;8043;49.388;12.128;2022-12-24T18:10:18;9.73;;;3.83;;
15889;SDS011;8043;49.388;12.128;2022-12-24T18:15:21;11.40;;;4.10;;
15889;SDS011;8043;49.388;12.128;2022-12-24T18:20:23;23.77;;;9.30;;
15889;SDS011;8043;49.388;12.128;2022-12-24T18:25:25;27.00;;;8.87;;
15889;SDS011;8043;49.388;12.128;2022-12-24T18:30:28;14.87;;;5.83;;
15889;SDS011;8043;49.388;12.128;2022-12-24T18:35:30;15.03;;;6.23;;
15889;SDS011;8043;49.388;12.128;2022-12-24T18:40:34;18.77;;;6.43;;
15889;SDS011;8043;49.388;12.128;2022-12-24T18:45:40;18.77;;;6.73;;
15889;SDS011;8043;49.388;12.128;2022-12-24T18:50:43;11.53;;;6.57;;
15889;SDS011;8043;49.388;12.128;2022-12-24T18:55:48;15.63;;;6.03;;
15889;SDS011;8043;49.388;12.128;2022-12-24T19:00:50;12.87;;;6.70;;
15889;SDS011;8043;49.388;12.128;2022-12-24T19:05:53;9.40;;;5.20;;
15889;SDS011;8043;49.388;12.128;2022-12-24T19:10:56;14.27;;;4.80;;
15889;SDS011;8043;49.388;12.128;2022-12-24T19:15:59;10.30;;;4.20;;
15889;SDS011;8043;49.388;12.128;2022-12-24T19:21:08;10.57;;;3.70;;
15889;SDS011;8043;49.388;12.128;2022-12-24T19:26:12;6.20;;;2.83;;
15889;SDS011;8043;49.388;12.128;2022-12-24T19:31:17;9.33;;;4.20;;
15889;SDS011;8043;49.388;12.128;2022-12-24T19:36:21;8.27;;;3.83;;
15889;SDS011;8043;49.388;12.128;2022-12-24T19:41:26;11.57;;;4.40;;
15889;SDS011;8043;49.388;12.128;2022-12-24T19:46:30;31.37;;;9.93;;
15889;SDS011;8043;49.388;12.128;2022-12-24T19:51:34;21.80;;;7.27;;
15889;SDS011;8043;49.388;12.128;2022-12-24T19:56:36;15.73;;;6.90;;
15889;SDS011;8043;49.388;12.128;2022-12-24T20:01:39;16.90;;;6.93;;
15889;SDS011;8043;49.388;12.128;2022-12-24T20:06:41;14.97;;;6.43;;
15889;SDS011;8043;49.388;12.128;2022-12-24T20:11:43;15.60;;;5.47;;
15889;SDS011;8043;49.388;12.128;2022-12-24T20:16:45;17.23;;;6.07;;
15889;SDS011;8043;49.388;12.128;2022-12-24T20:21:51;15.33;;;6.67;;
15889;SDS011;8043;49.388;12.128;2022-12-24T20:26:53;10.27;;;5.47;;
15889;SDS011;8043;49.388;12.128;2022-12-24T20:31:55;15.13;;;7.55;;
15889;SDS011;8043;49.388;12.128;2022-12-24T20:36:59;16.40;;;6.90;;
15889;SDS011;8043;49.388;12.128;2022-12-24T20:42:01;30.20;;;10.03;;
15889;SDS011;8043;49.388;12.128;2022-12-24T20:47:04;33.90;;;10.20;;
15889;SDS011;8043;49.388;12.128;2022-12-24T20:52:06;34.57;;;11.97;;
15889;SDS011;8043;49.388;12.128;2022-12-24T20:57:09;27.47;;;9.50;;
15889;SDS011;8043;49.388;12.128;2022-12-24T21:02:11;14.53;;;6.57;;
15889;SDS011;8043;49.388;12.128;2022-12-24T21:07:14;21.20;;;7.20;;
15889;SDS011;8043;49.388;12.128;2022-12-24T21:12:16;15.37;;;6.77;;
15889;SDS011;8043;49.388;12.128;2022-12-24T21:17:36;15.93;;;5.33;;
15889;SDS011;8043;49.388;12.128;2022-12-24T21:22:39;14.30;;;5.87;;
15889;SDS011;8043;49.388;12.128;2022-12-24T21:27:43;11.77;;;6.10;;
15889;SDS011;8043;49.388;12.128;2022-12-24T21:32:45;12.07;;;4.90;;
15889;SDS011;8043;49.388;12.128;2022-12-24T21:37:47;8.63;;;3.97;;
15889;SDS011;8043;49.388;12.128;2022-12-24T21:42:49;8.93;;;4.20;;
15889;SDS011;8043;49.388;12.128;2022-12-24T21:47:52;11.60;;;4.43;;
15889;SDS011;8043;49.388;12.128;2022-12-24T21:52:54;9.40;;;4.10;;
15889;SDS011;8043;49.388;12.128;2022-12-24T21:57:58;11.47;;;4.97;;
15889;SDS011;8043;49.388;12.128;2022-12-24T22:03:00;6.03;;;2.60;;
15889;SDS011;8043;49.388;12.128;2022-12-24T22:08:02;5.30;;;2.63;;
15889;SDS011;8043;49.388;12.128;2022-12-24T22:13:23;11.53;;;4.07;;
15889;SDS011;8043;49.388;12.128;2022-12-24T22:18:25;8.87;;;4.40;;
15889;SDS011;8043;49.388;12.128;2022-12-24T22:23:28;7.60;;;4.40;;
15889;SDS011;8043;49.388;12.128;2022-12-24T22:28:30;7.33;;;4.63;;
15889;SDS011;8043;49.388;12.128;2022-12-24T22:33:32;10.93;;;4.30;;
15889;SDS011;8043;49.388;12.128;2022-12-24T22:38:35;10.00;;;4.77;;
15889;SDS011;8043;49.388;12.128;2022-12-24T22:43:38;11.67;;;4.33;;
15889;SDS011;8043;49.388;12.128;2022-12-24T22:48:45;7.77;;;3.73;;
15889;SDS011;8043;49.388;12.128;2022-12-24T22:53:47;9.93;;;3.57;;
15889;SDS011;8043;49.388;12.128;2022-12-24T22:58:53;5.53;;;2.70;;
15889;SDS011;8043;49.388;12.128;2022-12-24T23:03:56;9.40;;;3.90;;
15889;SDS011;8043;49.388;12.128;2022-12-24T23:08:59;6.10;;;3.67;;
15889;SDS011;8043;49.388;12.128;2022-12-24T23:14:01;12.03;;;4.47;;
15889;SDS011;8043;49.388;12.128;2022-12-24T23:19:21;12.70;;;4.07;;
15889;SDS011;8043;49.388;12.128;2022-12-24T23:24:23;9.27;;;4.37;;
15889;SDS011;8043;49.388;12.128;2022-12-24T23:29:26;13.53;;;4.40;;
15889;SDS011;8043;49.388;12.128;2022-12-24T23:34:29;11.13;;;4.43;;
15889;SDS011;8043;49.388;12.128;2022-12-24T23:39:32;16.80;;;4.70;;
15889;SDS011;8043;49.388;12.128;2022-12-24T23:44:34;8.07;;;3.50;;
15889;SDS011;8043;49.388;12.128;2022-12-24T23:49:37;5.13;;;3.60;;
15889;SDS011;8043;49.388;12.128;2022-12-24T23:54:39;6.50;;;3.90;;
15889;SDS011;8043;49.388;12.128;2022-12-24T23:59:42;6.80;;;3.67;;
